createdAt,value
2023-05-15T00:01:24.963Z,100.00
2023-05-15T00:03:52.293Z,100.00
2023-05-15T00:06:19.600Z,100.00
2023-05-15T00:08:46.390Z,100.00
2023-05-15T00:11:13.091Z,100.00
2023-05-15T00:13:39.692Z,100.00
2023-05-15T00:16:10.046Z,100.00
2023-05-15T00:18:36.796Z,100.00
2023-05-15T00:21:03.553Z,100.00
2023-05-15T00:23:30.159Z,100.00
2023-05-15T00:25:56.806Z,100.00
2023-05-15T00:28:23.484Z,100.00
2023-05-15T00:30:50.143Z,100.00
2023-05-15T00:33:16.947Z,100.00
2023-05-15T00:35:43.853Z,100.00
2023-05-15T00:38:11.001Z,100.00
2023-05-15T00:40:38.670Z,100.00
2023-05-15T00:43:06.716Z,100.00
2023-05-15T00:45:34.578Z,100.00
2023-05-15T00:48:01.854Z,100.00
2023-05-15T00:50:29.884Z,100.00
2023-05-15T00:52:57.200Z,100.00
2023-05-15T00:55:26.585Z,100.00
2023-05-15T00:57:53.879Z,100.00
2023-05-15T01:04:21.987Z,100.00
2023-05-15T01:06:54.054Z,100.00
2023-05-15T01:09:23.673Z,100.00
2023-05-15T01:11:53.532Z,100.00
2023-05-15T01:14:20.128Z,100.00
2023-05-15T01:16:46.871Z,100.00
2023-05-15T01:19:13.613Z,100.00
2023-05-15T01:21:52.428Z,100.00
2023-05-15T01:25:02.411Z,100.00
2023-05-15T01:27:34.630Z,100.00
2023-05-15T01:30:22.205Z,100.00
2023-05-15T01:33:17.161Z,100.00
2023-05-15T01:36:09.843Z,100.00
2023-05-15T01:38:56.062Z,100.00
2023-05-15T01:41:29.587Z,100.00
2023-05-15T01:44:09.119Z,100.00
2023-05-15T01:46:39.648Z,100.00
2023-05-15T01:49:09.810Z,100.00
2023-05-15T01:51:38.092Z,100.00
2023-05-15T01:54:07.116Z,100.00
2023-05-15T01:56:35.055Z,100.00
2023-05-15T01:59:04.489Z,100.00
2023-05-15T02:01:32.897Z,100.00
2023-05-15T02:04:01.534Z,100.00
2023-05-15T02:06:29.789Z,100.00
2023-05-15T02:08:58.703Z,100.00
2023-05-15T02:11:25.551Z,100.00
2023-05-15T02:13:54.895Z,100.00
2023-05-15T02:16:21.768Z,100.00
2023-05-15T02:18:49.416Z,100.00
2023-05-15T02:21:16.233Z,100.00
2023-05-15T02:23:42.797Z,100.00
2023-05-15T02:26:43.879Z,100.00
2023-05-15T02:29:23.691Z,100.00
2023-05-15T02:32:01.679Z,100.00
2023-05-15T02:34:39.491Z,100.00
2023-05-15T02:37:10.804Z,100.00
2023-05-15T02:39:38.808Z,100.00
2023-05-15T02:42:06.593Z,100.00
2023-05-15T02:44:35.883Z,100.00
2023-05-15T02:47:03.867Z,100.00
2023-05-15T02:49:30.373Z,100.00
2023-05-15T02:51:56.990Z,100.00
2023-05-15T02:54:23.822Z,100.00
2023-05-15T02:56:50.413Z,100.00
2023-05-15T02:59:20.016Z,100.00
2023-05-15T03:01:47.417Z,100.00
2023-05-15T03:04:17.141Z,100.00
2023-05-15T03:06:43.838Z,100.00
2023-05-15T03:09:10.502Z,100.00
2023-05-15T03:11:37.007Z,100.00
2023-05-15T03:14:03.741Z,100.00
2023-05-15T03:16:30.474Z,100.00
2023-05-15T03:18:57.130Z,100.00
2023-05-15T03:21:23.724Z,100.00
2023-05-15T03:23:50.272Z,100.00
2023-05-15T03:26:16.928Z,100.00
2023-05-15T03:28:43.631Z,100.00
2023-05-15T03:31:10.433Z,100.00
2023-05-15T03:33:38.009Z,100.00
2023-05-15T03:36:05.312Z,100.00
2023-05-15T03:38:32.269Z,100.00
2023-05-15T03:40:58.849Z,100.00
2023-05-15T03:43:25.483Z,100.00
2023-05-15T03:45:52.027Z,100.00
2023-05-15T03:48:18.625Z,100.00
2023-05-15T03:50:46.003Z,100.00
2023-05-15T03:53:12.722Z,100.00
2023-05-15T03:55:39.439Z,100.00
2023-05-15T03:58:05.995Z,100.00
2023-05-15T04:00:32.582Z,100.00
2023-05-15T04:02:59.273Z,100.00
2023-05-15T04:05:26.324Z,100.00
2023-05-15T04:07:53.191Z,100.00
2023-05-15T04:10:20.172Z,100.00
2023-05-15T04:12:47.777Z,100.00
2023-05-15T04:15:15.567Z,100.00
2023-05-15T04:17:43.365Z,100.00
2023-05-15T04:20:11.360Z,100.00
2023-05-15T04:22:38.063Z,100.00
2023-05-15T04:25:05.019Z,100.00
2023-05-15T04:27:31.697Z,100.00
2023-05-15T04:29:58.251Z,100.00
2023-05-15T04:32:24.830Z,100.00
2023-05-15T04:34:51.391Z,100.00
2023-05-15T04:37:17.989Z,100.00
2023-05-15T04:39:44.659Z,100.00
2023-05-15T04:42:11.550Z,100.00
2023-05-15T04:44:38.126Z,100.00
2023-05-15T04:47:05.053Z,100.00
2023-05-15T04:49:31.584Z,100.00
2023-05-15T04:51:58.180Z,100.00
2023-05-15T04:54:24.898Z,100.00
2023-05-15T04:56:51.441Z,100.00
2023-05-15T04:59:18.274Z,100.00
2023-05-15T05:01:45.220Z,100.00
2023-05-15T05:04:11.909Z,100.00
2023-05-15T05:06:38.548Z,100.00
2023-05-15T05:09:05.143Z,100.00
2023-05-15T05:11:31.846Z,100.00
2023-05-15T05:13:58.497Z,100.00
2023-05-15T05:16:25.429Z,98.39
2023-05-15T05:18:52.150Z,92.96
2023-05-15T05:21:18.810Z,90.26
2023-05-15T05:23:45.809Z,88.55
2023-05-15T05:26:12.488Z,90.36
2023-05-15T05:28:39.188Z,86.14
2023-05-15T05:31:06.100Z,83.21
2023-05-15T05:33:32.744Z,82.27
2023-05-15T05:35:59.340Z,80.21
2023-05-15T05:38:27.823Z,77.69
2023-05-15T05:40:54.406Z,82.34
2023-05-15T05:43:20.966Z,79.85
2023-05-15T05:45:48.014Z,81.99
2023-05-15T05:48:14.601Z,89.12
2023-05-15T05:50:41.204Z,93.01
2023-05-15T05:53:07.803Z,92.37
2023-05-15T05:55:34.451Z,96.39
2023-05-15T05:58:02.169Z,96.03
2023-05-15T06:00:29.070Z,91.00
2023-05-15T06:02:58.778Z,86.92
2023-05-15T06:05:28.573Z,83.95
2023-05-15T06:07:55.552Z,82.68
2023-05-15T06:10:22.898Z,77.73
2023-05-15T06:12:49.632Z,80.76
2023-05-15T06:15:17.095Z,81.17
2023-05-15T06:17:43.795Z,76.39
2023-05-15T06:20:10.688Z,75.08
2023-05-15T06:22:37.719Z,80.12
2023-05-15T06:25:05.969Z,77.70
2023-05-15T06:27:33.426Z,73.73
2023-05-15T06:29:59.996Z,78.08
2023-05-15T06:32:26.648Z,82.47
2023-05-15T06:34:53.485Z,82.02
2023-05-15T06:37:20.212Z,80.63
2023-05-15T06:39:46.776Z,82.05
2023-05-15T06:42:15.183Z,76.74
2023-05-15T06:44:41.592Z,71.49
2023-05-15T06:47:08.274Z,71.00
2023-05-15T06:49:34.946Z,76.13
2023-05-15T06:52:01.556Z,70.02
2023-05-15T06:54:28.109Z,74.54
2023-05-15T06:56:54.681Z,72.92
2023-05-15T06:59:21.440Z,76.04
2023-05-15T07:01:48.171Z,81.15
2023-05-15T07:04:14.784Z,88.29
2023-05-15T07:06:41.411Z,78.03
2023-05-15T07:09:08.046Z,74.42
2023-05-15T07:11:37.405Z,72.10
2023-05-15T07:14:04.743Z,71.07
2023-05-15T07:16:31.404Z,67.47
2023-05-15T07:18:58.042Z,80.51
2023-05-15T07:21:24.637Z,67.98
2023-05-15T07:23:51.341Z,66.08
2023-05-15T07:26:28.696Z,65.14
2023-05-15T07:28:59.431Z,69.54
2023-05-15T07:31:26.141Z,71.10
2023-05-15T07:33:52.820Z,69.34
2023-05-15T07:36:19.423Z,66.54
2023-05-15T07:38:46.027Z,65.52
2023-05-15T07:41:12.610Z,68.77
2023-05-15T07:43:39.216Z,64.21
2023-05-15T07:46:05.884Z,60.36
2023-05-15T07:48:32.531Z,67.31
2023-05-15T07:50:59.102Z,62.28
2023-05-15T07:53:25.779Z,59.38
2023-05-15T07:55:52.463Z,62.43
2023-05-15T07:58:19.047Z,53.57
2023-05-15T08:00:45.786Z,55.29
2023-05-15T08:03:12.433Z,52.18
2023-05-15T08:05:39.230Z,54.50
2023-05-15T08:08:06.124Z,56.12
2023-05-15T08:10:32.700Z,61.30
2023-05-15T08:12:59.399Z,52.38
2023-05-15T08:15:26.235Z,57.92
2023-05-15T08:17:53.209Z,53.68
2023-05-15T08:20:19.899Z,60.27
2023-05-15T08:22:46.526Z,58.56
2023-05-15T08:25:13.398Z,54.77
2023-05-15T08:27:40.025Z,57.83
2023-05-15T08:30:07.372Z,65.26
2023-05-15T08:32:33.995Z,54.98
2023-05-15T08:35:00.697Z,51.30
2023-05-15T08:37:27.265Z,54.48
2023-05-15T08:39:54.333Z,56.18
2023-05-15T08:42:35.694Z,51.38
2023-05-15T08:45:03.187Z,58.81
2023-05-15T08:47:31.736Z,58.52
2023-05-15T08:50:10.187Z,54.31
2023-05-15T08:52:36.964Z,57.16
2023-05-15T08:55:04.432Z,58.76
2023-05-15T08:57:33.212Z,63.91
2023-05-15T09:00:00.688Z,63.82
2023-05-15T09:02:27.324Z,59.70
2023-05-15T09:04:54.069Z,55.58
2023-05-15T09:07:21.021Z,59.51
2023-05-15T09:09:47.915Z,61.46
2023-05-15T09:12:19.038Z,59.96
2023-05-15T09:14:45.802Z,56.87
2023-05-15T09:17:12.775Z,56.10
2023-05-15T09:19:42.653Z,53.55
2023-05-15T09:22:17.752Z,52.80
2023-05-15T09:24:48.158Z,59.47
2023-05-15T09:27:15.024Z,64.65
2023-05-15T09:29:41.712Z,63.63
2023-05-15T09:32:10.359Z,60.92
2023-05-15T09:34:39.953Z,54.72
2023-05-15T09:37:09.470Z,51.50
2023-05-15T09:39:43.761Z,50.14
2023-05-15T09:42:12.420Z,53.76
2023-05-15T09:44:46.429Z,54.79
2023-05-15T09:47:14.361Z,57.22
2023-05-15T09:49:44.806Z,53.59
2023-05-15T09:52:11.890Z,54.07
2023-05-15T09:54:38.837Z,58.68
2023-05-15T09:57:13.052Z,58.06
2023-05-15T09:59:47.916Z,57.94
2023-05-15T10:02:23.545Z,58.12
2023-05-15T10:04:56.039Z,57.80
2023-05-15T10:07:32.609Z,56.50
2023-05-15T10:10:00.480Z,57.37
2023-05-15T10:12:28.213Z,59.96
2023-05-15T10:14:57.252Z,55.17
2023-05-15T10:17:24.441Z,61.25
2023-05-15T10:19:58.261Z,57.37
2023-05-15T10:22:29.255Z,61.14
2023-05-15T10:25:03.875Z,63.46
2023-05-15T10:27:32.322Z,60.15
2023-05-15T10:29:59.849Z,58.19
2023-05-15T10:32:27.561Z,54.02
2023-05-15T10:34:56.053Z,54.58
2023-05-15T10:37:23.004Z,56.25
2023-05-15T10:39:51.309Z,56.20
2023-05-15T10:42:19.049Z,59.54
2023-05-15T10:44:45.614Z,58.81
2023-05-15T10:47:12.400Z,59.95
2023-05-15T10:49:39.118Z,60.14
2023-05-15T10:52:06.234Z,60.48
2023-05-15T10:54:32.884Z,58.41
2023-05-15T10:56:59.586Z,57.51
2023-05-15T10:59:32.966Z,57.90
2023-05-15T11:02:29.497Z,58.57
2023-05-15T11:05:01.293Z,58.07
2023-05-15T11:07:32.767Z,59.83
2023-05-15T11:09:59.284Z,59.91
2023-05-15T11:12:25.885Z,59.78
2023-05-15T11:14:52.445Z,58.85
2023-05-15T11:17:19.073Z,60.42
2023-05-15T11:19:51.888Z,58.21
2023-05-15T11:22:19.759Z,58.66
2023-05-15T11:25:06.157Z,56.97
2023-05-15T11:27:38.147Z,57.98
2023-05-15T11:30:12.783Z,59.07
2023-05-15T11:33:00.589Z,55.76
2023-05-15T11:35:34.300Z,60.54
2023-05-15T11:38:09.898Z,59.23
2023-05-15T11:41:02.815Z,59.32
2023-05-15T11:43:35.028Z,58.44
2023-05-15T11:46:10.433Z,59.72
2023-05-15T11:48:41.721Z,61.50
2023-05-15T11:51:25.118Z,58.49
2023-05-15T11:53:53.870Z,57.56
2023-05-15T11:56:22.781Z,59.09
2023-05-15T11:58:55.553Z,58.08
2023-05-15T12:01:22.254Z,58.21
2023-05-15T12:03:50.064Z,57.37
2023-05-15T12:06:17.405Z,55.69
2023-05-15T12:08:45.062Z,59.22
2023-05-15T12:11:12.454Z,60.14
2023-05-15T12:13:39.128Z,59.12
2023-05-15T12:16:06.327Z,58.38
2023-05-15T12:18:33.609Z,58.35
2023-05-15T12:21:00.574Z,57.59
2023-05-15T12:23:28.469Z,57.54
2023-05-15T12:26:00.961Z,56.30
2023-05-15T12:28:28.958Z,56.54
2023-05-15T12:31:11.955Z,55.68
2023-05-15T12:33:38.843Z,55.43
2023-05-15T12:36:06.243Z,55.82
2023-05-15T12:38:35.025Z,54.25
2023-05-15T12:41:01.732Z,56.23
2023-05-15T12:43:28.507Z,55.25
2023-05-15T12:45:57.031Z,55.59
2023-05-15T12:48:23.668Z,55.00
2023-05-15T12:50:50.319Z,55.91
2023-05-15T12:53:17.388Z,54.67
2023-05-15T12:55:46.238Z,53.89
2023-05-15T12:58:15.183Z,55.00
2023-05-15T13:00:43.521Z,56.22
2023-05-15T13:03:11.339Z,54.31
2023-05-15T13:05:38.750Z,53.87
2023-05-15T13:08:07.607Z,55.77
2023-05-15T13:10:36.274Z,54.02
2023-05-15T13:13:03.194Z,55.53
2023-05-15T13:15:36.478Z,55.08
2023-05-15T13:18:04.682Z,56.77
2023-05-15T13:20:40.705Z,53.83
2023-05-15T13:23:08.762Z,54.52
2023-05-15T13:25:35.978Z,54.94
2023-05-15T13:28:05.352Z,54.97
2023-05-15T13:30:34.100Z,50.84
2023-05-15T13:33:01.251Z,50.22
2023-05-15T13:35:28.466Z,49.65
2023-05-15T13:37:55.421Z,49.96
2023-05-15T13:40:22.078Z,51.33
2023-05-15T13:42:49.065Z,53.47
2023-05-15T13:45:16.537Z,52.56
2023-05-15T13:47:43.850Z,51.52
2023-05-15T13:50:13.101Z,52.68
2023-05-15T13:52:41.096Z,52.59
2023-05-15T13:55:09.847Z,54.63
2023-05-15T13:57:40.655Z,51.24
2023-05-15T14:00:10.773Z,52.84
2023-05-15T14:02:37.422Z,53.01
2023-05-15T14:05:05.182Z,54.77
2023-05-15T14:07:32.126Z,55.03
2023-05-15T14:09:58.835Z,51.30
2023-05-15T14:12:25.435Z,52.59
2023-05-15T14:14:52.069Z,52.35
2023-05-15T14:17:18.637Z,53.96
2023-05-15T14:19:45.253Z,53.84
2023-05-15T14:22:12.237Z,55.85
2023-05-15T14:24:38.807Z,55.83
2023-05-15T14:27:05.779Z,56.43
2023-05-15T14:29:32.428Z,55.50
2023-05-15T14:31:59.119Z,56.79
2023-05-15T14:34:25.999Z,55.67
2023-05-15T14:36:52.762Z,54.79
2023-05-15T14:39:19.550Z,54.24
2023-05-15T14:41:47.821Z,52.64
2023-05-15T14:44:14.719Z,54.05
2023-05-15T14:46:43.045Z,54.27
2023-05-15T14:49:09.565Z,52.78
2023-05-15T14:51:36.086Z,53.41
2023-05-15T14:54:04.417Z,53.50
2023-05-15T14:56:31.411Z,53.72
2023-05-15T14:58:57.955Z,53.84
2023-05-15T15:01:24.584Z,52.27
2023-05-15T15:03:51.229Z,54.17
2023-05-15T15:06:18.345Z,52.47
2023-05-15T15:08:44.941Z,54.86
2023-05-15T15:11:11.548Z,54.12
2023-05-15T15:13:38.130Z,53.05
2023-05-15T15:16:04.971Z,53.73
2023-05-15T15:18:31.754Z,53.04
2023-05-15T15:20:58.455Z,54.04
2023-05-15T15:23:25.119Z,52.86
2023-05-15T15:25:51.652Z,50.76
2023-05-15T15:28:18.275Z,49.90
2023-05-15T15:30:44.879Z,50.16
2023-05-15T15:33:11.568Z,50.97
2023-05-15T15:35:38.335Z,52.26
2023-05-15T15:38:05.582Z,53.08
2023-05-15T15:40:32.132Z,52.71
2023-05-15T15:42:58.699Z,52.45
2023-05-15T15:45:25.378Z,52.85
2023-05-15T15:47:52.015Z,53.27
2023-05-15T15:50:18.791Z,52.22
2023-05-15T15:52:45.325Z,52.50
2023-05-15T15:55:11.869Z,52.08
2023-05-15T15:57:38.513Z,53.24
2023-05-15T16:00:08.185Z,51.73
2023-05-15T16:02:35.262Z,53.16
2023-05-15T16:05:02.455Z,52.49
2023-05-15T16:07:29.397Z,52.28
2023-05-15T16:10:04.222Z,51.69
2023-05-15T16:12:39.017Z,51.78
2023-05-15T16:15:21.073Z,52.00
2023-05-15T16:17:52.497Z,51.64
2023-05-15T16:20:19.721Z,51.65
2023-05-15T16:22:46.279Z,52.25
2023-05-15T16:25:12.950Z,51.38
2023-05-15T16:27:39.519Z,53.05
2023-05-15T16:30:06.691Z,51.83
2023-05-15T16:32:34.027Z,51.33
2023-05-15T16:35:03.023Z,50.61
2023-05-15T16:37:29.982Z,52.08
2023-05-15T16:39:56.785Z,52.51
2023-05-15T16:42:23.445Z,52.03
2023-05-15T16:44:50.001Z,52.04
2023-05-15T16:47:16.583Z,53.17
2023-05-15T16:49:44.571Z,52.31
2023-05-15T16:52:12.057Z,51.95
2023-05-15T16:54:41.540Z,52.97
2023-05-15T16:57:08.221Z,52.42
2023-05-15T16:59:35.059Z,52.69
2023-05-15T17:02:01.813Z,53.17
2023-05-15T17:04:31.436Z,53.69
2023-05-15T17:06:59.408Z,52.28
2023-05-15T17:09:26.365Z,52.11
2023-05-15T17:11:52.967Z,52.75
2023-05-15T17:14:19.588Z,52.68
2023-05-15T17:16:46.266Z,52.48
2023-05-15T17:19:13.137Z,54.25
2023-05-15T17:21:39.854Z,56.84
2023-05-15T17:24:06.823Z,57.27
2023-05-15T17:26:33.455Z,58.12
2023-05-15T17:29:00.713Z,58.58
2023-05-15T17:31:29.217Z,57.69
2023-05-15T17:33:55.744Z,59.60
2023-05-15T17:36:22.310Z,60.26
2023-05-15T17:38:48.872Z,59.92
2023-05-15T17:41:15.682Z,60.06
2023-05-15T17:43:42.289Z,60.47
2023-05-15T17:46:08.949Z,60.15
2023-05-15T17:48:36.097Z,60.25
2023-05-15T17:51:02.763Z,60.58
2023-05-15T17:53:29.353Z,60.98
2023-05-15T17:55:55.963Z,60.31
2023-05-15T17:58:22.698Z,60.84
2023-05-15T18:00:51.057Z,61.33
2023-05-15T18:03:17.928Z,61.19
2023-05-15T18:05:48.009Z,61.72
2023-05-15T18:08:14.756Z,61.20
2023-05-15T18:10:41.350Z,61.19
2023-05-15T18:13:07.941Z,61.74
2023-05-15T18:15:37.699Z,62.17
2023-05-15T18:18:04.651Z,61.59
2023-05-15T18:20:31.504Z,61.80
2023-05-15T18:22:58.199Z,61.52
2023-05-15T18:25:25.066Z,62.15
2023-05-15T18:27:52.173Z,60.90
2023-05-15T18:30:19.452Z,62.25
2023-05-15T18:32:46.065Z,61.94
2023-05-15T18:35:13.127Z,63.09
2023-05-15T18:37:40.154Z,62.72
2023-05-15T18:40:07.898Z,65.44
2023-05-15T18:42:34.732Z,67.58
2023-05-15T18:45:02.186Z,68.02
2023-05-15T18:47:29.167Z,68.10
2023-05-15T18:49:55.917Z,67.69
2023-05-15T18:52:23.142Z,67.21
2023-05-15T18:54:49.769Z,66.26
2023-05-15T18:57:16.597Z,67.38
2023-05-15T18:59:44.483Z,68.31
2023-05-15T19:02:11.142Z,70.20
2023-05-15T19:04:37.811Z,68.50
2023-05-15T19:07:04.670Z,69.86
2023-05-15T19:09:32.699Z,69.95
2023-05-15T19:12:00.156Z,70.89
2023-05-15T19:14:26.962Z,71.52
2023-05-15T19:16:54.100Z,69.47
2023-05-15T19:19:20.843Z,69.80
2023-05-15T19:21:47.694Z,71.96
2023-05-15T19:24:14.593Z,70.40
2023-05-15T19:26:41.558Z,73.67
2023-05-15T19:29:08.516Z,72.56
2023-05-15T19:31:35.380Z,73.55
2023-05-15T19:34:02.055Z,71.98
2023-05-15T19:36:28.802Z,69.31
2023-05-15T19:38:55.577Z,68.28
2023-05-15T19:41:22.751Z,68.07
2023-05-15T19:43:51.072Z,67.31
2023-05-15T19:46:18.674Z,67.76
2023-05-15T19:48:45.628Z,66.12
2023-05-15T19:51:12.768Z,65.86
2023-05-15T19:53:39.590Z,65.75
2023-05-15T19:56:06.450Z,66.03
2023-05-15T19:58:33.105Z,65.89
2023-05-15T20:00:59.766Z,66.61
2023-05-15T20:03:32.536Z,66.05
2023-05-15T20:06:03.220Z,66.38
2023-05-15T20:08:30.246Z,66.69
2023-05-15T20:10:57.639Z,67.15
2023-05-15T20:13:24.589Z,69.25
2023-05-15T20:15:58.200Z,69.59
2023-05-15T20:18:26.319Z,69.27
2023-05-15T20:20:55.909Z,68.98
2023-05-15T20:23:22.752Z,68.74
2023-05-15T20:25:50.522Z,68.55
2023-05-15T20:28:17.877Z,68.70
2023-05-15T20:30:47.600Z,68.01
2023-05-15T20:33:14.696Z,69.91
2023-05-15T20:35:42.806Z,69.20
2023-05-15T20:38:10.451Z,68.14
2023-05-15T20:40:37.549Z,68.49
2023-05-15T20:43:04.524Z,70.21
2023-05-15T20:45:32.435Z,69.03
2023-05-15T20:47:59.277Z,70.51
2023-05-15T20:50:26.280Z,71.79
2023-05-15T20:52:55.979Z,70.83
2023-05-15T20:55:22.761Z,70.94
2023-05-15T20:57:50.614Z,70.56
2023-05-15T21:00:18.239Z,70.42
2023-05-15T21:02:46.065Z,70.98
2023-05-15T21:05:12.907Z,71.79
2023-05-15T21:07:39.613Z,71.03
2023-05-15T21:10:07.046Z,72.79
2023-05-15T21:12:34.459Z,73.44
2023-05-15T21:15:01.952Z,73.28
2023-05-15T21:17:28.843Z,72.19
2023-05-15T21:19:57.651Z,72.67
2023-05-15T21:22:24.447Z,74.96
2023-05-15T21:24:51.252Z,72.97
2023-05-15T21:27:17.876Z,72.81
2023-05-15T21:29:44.450Z,73.69
2023-05-15T21:32:11.677Z,73.88
2023-05-15T21:34:39.358Z,73.92
2023-05-15T21:37:06.025Z,72.34
2023-05-15T21:39:32.630Z,72.91
2023-05-15T21:41:59.765Z,73.43
2023-05-15T21:44:26.451Z,74.56
2023-05-15T21:46:53.416Z,77.97
2023-05-15T21:49:20.035Z,78.75
2023-05-15T21:51:46.786Z,78.32
2023-05-15T21:54:13.474Z,75.85
2023-05-15T21:56:41.081Z,77.08
2023-05-15T21:59:07.700Z,75.81
2023-05-15T22:01:34.621Z,75.54
2023-05-15T22:04:01.230Z,74.47
2023-05-15T22:06:27.932Z,74.69
2023-05-15T22:08:54.520Z,73.95
2023-05-15T22:11:21.311Z,74.71
2023-05-15T22:13:47.918Z,73.37
2023-05-15T22:16:15.189Z,72.03
2023-05-15T22:18:45.379Z,72.86
2023-05-15T22:21:12.155Z,74.10
2023-05-15T22:23:38.794Z,73.36
2023-05-15T22:26:05.630Z,73.73
2023-05-15T22:28:32.279Z,71.85
2023-05-15T22:30:59.081Z,72.92
2023-05-15T22:33:25.795Z,73.39
2023-05-15T22:35:53.204Z,73.60
2023-05-15T22:38:20.648Z,76.03
2023-05-15T22:40:53.741Z,76.08
2023-05-15T22:43:22.091Z,76.99
2023-05-15T22:45:48.687Z,76.85
2023-05-15T22:48:15.508Z,77.15
2023-05-15T22:50:43.727Z,76.43
2023-05-15T22:53:10.411Z,81.08
2023-05-15T22:55:37.298Z,79.07
2023-05-15T22:58:04.212Z,78.79
2023-05-15T23:00:31.148Z,77.72
2023-05-15T23:02:58.128Z,77.06
2023-05-15T23:05:25.246Z,74.59
2023-05-15T23:07:52.652Z,75.27
2023-05-15T23:10:19.413Z,73.86
2023-05-15T23:12:46.335Z,74.39
2023-05-15T23:15:13.086Z,73.23
2023-05-15T23:17:40.544Z,72.79
2023-05-15T23:20:10.445Z,72.89
2023-05-15T23:22:37.351Z,72.40
2023-05-15T23:25:04.265Z,72.12
2023-05-15T23:27:30.994Z,72.55
2023-05-15T23:29:57.629Z,72.08
2023-05-15T23:32:24.392Z,71.75
2023-05-15T23:34:52.165Z,70.92
2023-05-15T23:37:18.941Z,71.24
2023-05-15T23:39:45.642Z,70.65
2023-05-15T23:42:12.536Z,69.99
2023-05-15T23:44:39.128Z,70.15
2023-05-15T23:47:06.612Z,69.64
2023-05-15T23:49:33.649Z,68.53
2023-05-15T23:52:00.594Z,68.73
2023-05-15T23:54:27.952Z,67.82
2023-05-15T23:56:54.867Z,68.41
2023-05-15T23:59:21.641Z,69.54
